Heisson, Washington
Current Conditions -  °F | °C
As of 3:53 PM on Thursday 27 Nov 2014 (Local Time) from KVUO Reporting Station
Overcast Overcast  
Wind Chill: 55°   Ceiling: 1700
Heat Index: 55°   Visibility: 8mi
Dew Point: 50°   Wind: 6mph
Humidity: 83%   Direction: 160°SSE
Pressure: 29.91"   Gusts: NA
Location:  45.82°N, 122.49°W
Report Text: KVUO 272353Z AUTO 16005KT 8SM OVC017 13/10 A2991 RMK AO2 SLP129 60001 T01280100 10139 20128 56011
Loading
Personal Weather Stations






























Interactive Weather Map New forecast layout! Learn more

10-Day Weather Forecast

Advertisements
Track Severe Weather on mobile